Time;durP1;ratioP1;P1;durP2;ratioP2;P2;SDS_P1;SDS_P2;PMS_P1;PMS_P2;Temp;Humidity;BMP_temperature;BMP_pressure;BME280_temperature;BME280_humidity;BME280_pressure;Samples;Min_cycle;Max_cycle;Signal;HPM_P1;HPM_P2
2023/03/28 00:00:47;;;;;;;6.20;1.57;;;3.90;99.90;;;;;;5076511;28;20305;-60
2023/03/28 00:03:17;;;;;;;6.47;1.40;;;3.70;99.90;;;;;;5075998;28;20543;-59
2023/03/28 00:05:49;;;;;;;2.27;1.50;;;3.80;99.90;;;;;;5074543;28;20206;-67
2023/03/28 00:08:17;;;;;;;5.60;1.60;;;3.90;99.90;;;;;;5071773;28;20196;-59
2023/03/28 00:10:45;;;;;;;4.80;1.37;;;3.80;99.90;;;;;;5078411;28;20301;-59
2023/03/28 00:13:12;;;;;;;4.37;1.60;;;3.90;99.90;;;;;;5073435;28;20287;-59
2023/03/28 00:15:41;;;;;;;2.77;1.20;;;4.00;1.00;;;;;;5074181;28;20288;-59
2023/03/28 00:18:11;;;;;;;5.50;1.70;;;3.90;1.00;;;;;;5078046;28;20224;-59
2023/03/28 00:20:41;;;;;;;7.37;1.57;;;3.90;1.00;;;;;;5073419;28;20245;-59
2023/03/28 00:23:10;;;;;;;5.23;1.30;;;3.90;1.00;;;;;;5074738;28;20197;-59
2023/03/28 00:25:40;;;;;;;6.17;1.67;;;3.80;1.00;;;;;;5072710;28;20270;-59
2023/03/28 00:28:07;;;;;;;5.90;1.47;;;3.70;99.90;;;;;;5073525;28;20296;-59
2023/03/28 00:30:34;;;;;;;6.60;1.40;;;3.70;99.90;;;;;;5072981;28;20271;-59
2023/03/28 00:33:03;;;;;;;5.83;1.60;;;3.50;99.90;;;;;;5073609;28;20235;-59
2023/03/28 00:35:31;;;;;;;8.73;1.77;;;3.40;99.90;;;;;;5071681;28;20270;-59
2023/03/28 00:37:58;;;;;;;7.10;1.60;;;3.30;1.00;;;;;;5076797;28;20548;-59
2023/03/28 00:40:25;;;;;;;5.00;1.60;;;3.60;1.00;;;;;;5061694;28;20209;-60
2023/03/28 00:42:53;;;;;;;6.17;1.60;;;3.40;99.90;;;;;;5059542;28;20203;-59
2023/03/28 00:45:23;;;;;;;6.90;1.63;;;3.30;1.00;;;;;;5075784;28;20207;-63
2023/03/28 00:48:00;;;;;;;4.17;1.33;;;3.30;1.00;;;;;;5080461;28;20226;-59
2023/03/28 00:50:32;;;;;;;2.00;1.37;;;3.40;1.00;;;;;;5074685;28;20235;-59
2023/03/28 00:53:19;;;;;;;5.37;1.27;;;3.30;1.00;;;;;;5076248;28;20234;-63
2023/03/28 00:55:50;;;;;;;3.63;1.40;;;3.10;1.00;;;;;;5060673;28;20196;-59
2023/03/28 00:58:22;;;;;;;5.27;1.50;;;3.00;1.00;;;;;;5080583;28;20722;-60
2023/03/28 01:00:53;;;;;;;7.53;2.37;;;3.00;1.00;;;;;;5062105;28;20645;-60
2023/03/28 01:03:26;;;;;;;2.67;1.40;;;3.20;1.00;;;;;;5080499;28;20203;-60
2023/03/28 01:05:54;;;;;;;6.40;1.70;;;3.20;99.90;;;;;;5077473;28;20602;-61
2023/03/28 01:08:24;;;;;;;5.00;1.60;;;3.40;99.90;;;;;;5075350;28;20248;-59
2023/03/28 01:10:51;;;;;;;5.63;1.70;;;3.40;99.90;;;;;;5077436;28;20564;-59
2023/03/28 01:13:24;;;;;;;4.27;2.00;;;3.40;99.90;;;;;;5075544;28;20214;-59
2023/03/28 01:15:52;;;;;;;5.47;1.87;;;3.40;1.00;;;;;;5076912;28;20228;-59
2023/03/28 01:18:22;;;;;;;3.87;1.83;;;3.20;1.00;;;;;;5062256;28;20310;-59
2023/03/28 01:21:05;;;;;;;6.47;1.70;;;3.40;99.90;;;;;;5079331;28;20293;-60
2023/03/28 01:24:09;;;;;;;8.87;1.70;;;3.40;1.00;;;;;;5079200;28;20576;-61
2023/03/28 01:26:47;;;;;;;5.67;2.00;;;3.40;1.00;;;;;;5079988;28;20214;-59
2023/03/28 01:29:47;;;;;;;5.40;1.70;;;3.20;1.00;;;;;;5078125;28;20563;-59
2023/03/28 01:32:27;;;;;;;5.70;1.53;;;3.10;1.00;;;;;;5076536;28;20804;-59
2023/03/28 01:35:09;;;;;;;4.73;1.90;;;3.00;99.90;;;;;;5078616;28;20204;-59
2023/03/28 01:37:46;;;;;;;6.53;1.90;;;2.80;1.00;;;;;;5077520;28;20206;-59
2023/03/28 01:40:20;;;;;;;3.83;2.33;;;2.70;99.90;;;;;;5077459;28;20231;-59
2023/03/28 01:43:07;;;;;;;7.57;2.00;;;2.80;99.90;;;;;;5078954;28;20200;-60
2023/03/28 01:45:47;;;;;;;7.50;1.90;;;2.90;1.00;;;;;;5076235;28;21022;-62
2023/03/28 01:48:32;;;;;;;5.30;1.97;;;2.80;1.00;;;;;;5076874;28;20200;-59
2023/03/28 01:51:26;;;;;;;3.57;2.40;;;2.80;1.00;;;;;;5077183;28;20312;-59
2023/03/28 01:54:04;;;;;;;4.57;2.20;;;2.90;99.90;;;;;;5077660;28;20923;-60
2023/03/28 01:56:41;;;;;;;4.73;2.10;;;2.80;1.00;;;;;;5058288;28;20215;-59
2023/03/28 01:59:41;;;;;;;8.97;2.53;;;2.70;1.00;;;;;;5060605;28;20282;-59
2023/03/28 02:02:08;;;;;;;6.40;1.90;;;2.60;1.00;;;;;;5077275;28;20739;-59
2023/03/28 02:04:37;;;;;;;8.60;1.90;;;2.50;99.90;;;;;;5076763;28;20208;-59
2023/03/28 02:07:07;;;;;;;4.17;2.00;;;2.40;1.00;;;;;;5077636;28;20193;-64
2023/03/28 02:09:36;;;;;;;5.27;2.30;;;2.40;1.00;;;;;;5075119;28;20225;-59
2023/03/28 02:12:14;;;;;;;7.73;2.70;;;2.40;91.40;;;;;;5077768;28;20620;-59
2023/03/28 02:14:43;;;;;;;7.90;2.17;;;2.30;99.90;;;;;;5062416;28;20279;-59
2023/03/28 02:17:14;;;;;;;2.97;1.97;;;2.30;99.90;;;;;;5076692;28;20198;-59
2023/03/28 02:19:47;;;;;;;6.13;2.87;;;2.20;1.00;;;;;;5078340;28;20191;-59
2023/03/28 02:22:38;;;;;;;10.90;2.50;;;2.10;99.90;;;;;;5062699;28;20318;-59
2023/03/28 02:25:05;;;;;;;7.47;3.03;;;2.10;1.00;;;;;;5058133;28;20211;-59
2023/03/28 02:27:36;;;;;;;9.63;2.10;;;2.00;1.00;;;;;;5079734;28;20200;-59
2023/03/28 02:30:04;;;;;;;4.80;2.13;;;2.00;99.90;;;;;;5074546;28;20208;-58
2023/03/28 02:32:32;;;;;;;6.13;2.30;;;2.00;1.00;;;;;;5079256;28;20228;-59
2023/03/28 02:35:01;;;;;;;6.70;2.33;;;1.90;1.00;;;;;;5075414;28;20203;-59
2023/03/28 02:37:34;;;;;;;3.23;2.13;;;2.10;1.00;;;;;;5076755;28;20527;-60
2023/03/28 02:40:36;;;;;;;4.37;2.00;;;2.00;1.00;;;;;;5075195;28;20203;-59
2023/03/28 02:43:10;;;;;;;5.60;2.03;;;2.00;1.00;;;;;;5058305;28;20718;-59
2023/03/28 02:45:56;;;;;;;5.47;3.23;;;2.20;1.00;;;;;;5074290;28;20228;-59
2023/03/28 02:48:43;;;;;;;6.43;1.77;;;2.10;99.90;;;;;;5074572;28;21171;-63
2023/03/28 02:51:21;;;;;;;4.20;2.67;;;2.40;99.90;;;;;;5077264;28;20584;-59
2023/03/28 02:54:28;;;;;;;6.90;2.30;;;2.50;1.00;;;;;;5092061;28;20650;-59
2023/03/28 02:57:05;;;;;;;5.10;2.43;;;2.40;99.90;;;;;;5097026;28;20199;-59
2023/03/28 02:59:54;;;;;;;9.23;2.97;;;2.20;22.80;;;;;;5095723;28;20212;-59
2023/03/28 03:02:21;;;;;;;6.23;2.30;;;2.20;99.90;;;;;;5095693;28;20265;-59
2023/03/28 03:04:49;;;;;;;3.03;1.60;;;2.50;99.90;;;;;;5095827;28;20226;-59
2023/03/28 03:07:17;;;;;;;8.47;2.43;;;2.30;1.00;;;;;;5095700;28;20255;-59
2023/03/28 03:09:45;;;;;;;4.80;2.13;;;2.20;1.00;;;;;;5090449;28;20210;-59
2023/03/28 03:12:13;;;;;;;5.40;2.07;;;2.10;99.90;;;;;;5096725;28;20221;-59
2023/03/28 03:14:39;;;;;;;3.07;2.23;;;2.00;1.00;;;;;;5095626;28;20299;-59
2023/03/28 03:17:06;;;;;;;5.47;1.90;;;2.00;1.00;;;;;;5093087;28;22556;-59
2023/03/28 03:19:33;;;;;;;4.57;2.23;;;2.10;79.20;;;;;;5091225;28;20218;-63
2023/03/28 03:22:01;;;;;;;7.67;2.13;;;2.10;1.00;;;;;;5098268;28;20241;-59
2023/03/28 03:24:28;;;;;;;4.70;2.30;;;2.10;1.00;;;;;;5094607;28;20209;-60
2023/03/28 03:26:55;;;;;;;7.30;2.30;;;2.00;1.00;;;;;;5098537;28;20655;-59
2023/03/28 03:29:21;;;;;;;5.77;2.50;;;1.80;1.00;;;;;;5096038;28;20648;-61
2023/03/28 03:31:48;;;;;;;5.47;2.30;;;2.20;77.50;;;;;;5097741;28;20224;-60
2023/03/28 03:34:15;;;;;;;5.43;2.20;;;2.30;99.90;;;;;;5093536;28;20190;-59
2023/03/28 03:36:42;;;;;;;10.00;2.37;;;2.40;1.00;;;;;;5095504;28;20190;-59
2023/03/28 03:39:09;;;;;;;3.30;1.63;;;2.30;99.90;;;;;;5094628;28;20198;-59
2023/03/28 03:41:36;;;;;;;9.20;2.83;;;2.40;99.90;;;;;;5094446;28;20293;-59
2023/03/28 03:44:03;;;;;;;4.70;2.10;;;2.40;1.00;;;;;;5096440;28;20206;-60
2023/03/28 03:46:30;;;;;;;6.00;2.30;;;2.20;1.00;;;;;;5094747;28;20337;-59
2023/03/28 03:48:57;;;;;;;7.00;2.07;;;2.20;1.00;;;;;;5095856;28;20291;-60
2023/03/28 03:51:24;;;;;;;7.77;3.40;;;2.00;1.00;;;;;;5091713;28;20313;-59
2023/03/28 03:53:51;;;;;;;4.57;2.00;;;2.10;1.00;;;;;;5093616;28;20283;-60
2023/03/28 03:56:18;;;;;;;4.93;2.10;;;2.20;99.90;;;;;;5093843;28;20290;-62
2023/03/28 03:58:44;;;;;;;9.30;2.27;;;2.30;1.00;;;;;;5092326;28;20211;-60
2023/03/28 04:01:12;;;;;;;3.47;1.97;;;2.30;1.00;;;;;;5097688;28;20207;-59
2023/03/28 04:03:40;;;;;;;3.47;2.10;;;2.30;1.00;;;;;;5093833;28;20268;-59
2023/03/28 04:06:08;;;;;;;3.83;2.17;;;2.20;1.00;;;;;;5091790;28;21137;-59
2023/03/28 04:08:35;;;;;;;5.10;2.27;;;1.90;1.00;;;;;;5094410;28;20217;-59
2023/03/28 04:11:02;;;;;;;4.73;2.63;;;1.90;99.90;;;;;;5092122;28;20233;-59
2023/03/28 04:13:29;;;;;;;3.77;2.07;;;2.00;1.00;;;;;;5091532;28;20286;-60
2023/03/28 04:15:55;;;;;;;4.73;2.30;;;2.20;1.00;;;;;;5097069;28;20289;-63
2023/03/28 04:18:22;;;;;;;6.77;2.40;;;2.20;1.00;;;;;;5098922;28;20244;-59
2023/03/28 04:20:54;;;;;;;6.90;2.43;;;2.00;1.00;;;;;;5097451;28;20264;-59
2023/03/28 04:23:24;;;;;;;3.03;2.33;;;2.10;1.00;;;;;;5097776;28;20200;-59
2023/03/28 04:25:59;;;;;;;5.73;2.13;;;2.30;99.90;;;;;;5097380;28;20309;-59
2023/03/28 04:28:26;;;;;;;8.63;2.30;;;2.40;43.70;;;;;;5098532;28;20239;-59
2023/03/28 04:30:58;;;;;;;4.67;2.13;;;2.40;1.00;;;;;;5096427;28;20622;-59
2023/03/28 04:33:32;;;;;;;5.00;2.00;;;2.20;1.00;;;;;;5098366;28;20217;-59
2023/03/28 04:36:00;;;;;;;7.87;2.40;;;2.10;1.00;;;;;;5096737;28;20196;-59
2023/03/28 04:38:36;;;;;;;11.07;2.93;;;2.20;1.00;;;;;;5095155;28;20199;-59
2023/03/28 04:41:04;;;;;;;4.70;2.20;;;2.10;1.00;;;;;;5096783;28;20206;-60
2023/03/28 04:43:31;;;;;;;3.97;2.30;;;2.40;99.90;;;;;;5097864;28;20209;-59
2023/03/28 04:45:58;;;;;;;9.60;2.47;;;2.30;1.00;;;;;;5098802;28;20310;-59
2023/03/28 04:48:26;;;;;;;5.40;2.37;;;2.20;1.00;;;;;;5099362;28;20548;-59
2023/03/28 04:50:53;;;;;;;6.97;2.40;;;2.30;1.00;;;;;;5094032;28;20653;-59
2023/03/28 04:53:21;;;;;;;8.17;2.77;;;2.10;1.00;;;;;;5097640;28;20458;-60
2023/03/28 04:55:49;;;;;;;5.07;2.50;;;2.20;1.00;;;;;;5097899;28;20250;-60
2023/03/28 04:58:17;;;;;;;5.93;2.97;;;2.00;1.00;;;;;;5096461;28;20524;-59
2023/03/28 05:00:45;;;;;;;5.07;2.73;;;1.90;1.00;;;;;;5097924;28;20286;-60
2023/03/28 05:03:17;;;;;;;10.30;2.93;;;2.00;99.90;;;;;;5099308;28;20206;-59
2023/03/28 05:05:45;;;;;;;9.43;3.23;;;2.10;99.90;;;;;;5096855;28;20219;-60
2023/03/28 05:08:14;;;;;;;6.13;3.47;;;2.00;1.00;;;;;;5099865;28;20200;-60
2023/03/28 05:10:43;;;;;;;9.07;3.00;;;1.80;99.90;;;;;;5099218;28;20667;-62
2023/03/28 05:13:11;;;;;;;6.17;3.20;;;1.80;1.00;;;;;;5100225;28;20251;-59
2023/03/28 05:15:38;;;;;;;6.27;2.97;;;1.60;1.00;;;;;;5097871;28;20201;-63
2023/03/28 05:18:04;;;;;;;8.13;3.30;;;1.80;1.00;;;;;;5101031;28;20223;-59
2023/03/28 05:20:32;;;;;;;7.00;3.43;;;1.60;1.00;;;;;;5098494;28;20599;-59
2023/03/28 05:23:00;;;;;;;9.90;3.57;;;1.60;99.90;;;;;;5097261;28;20659;-60
2023/03/28 05:25:27;;;;;;;6.93;3.53;;;1.60;99.90;;;;;;5098323;28;20609;-60
2023/03/28 05:27:53;;;;;;;5.33;3.70;;;1.60;1.00;;;;;;5096717;28;20248;-64
2023/03/28 05:30:20;;;;;;;8.10;4.10;;;1.90;1.00;;;;;;5095823;28;20212;-60
2023/03/28 05:32:47;;;;;;;7.93;4.10;;;1.70;99.90;;;;;;5098554;28;20229;-60
2023/03/28 05:35:15;;;;;;;9.10;3.90;;;1.90;1.00;;;;;;5095964;28;20277;-60
2023/03/28 05:37:42;;;;;;;7.80;3.90;;;1.70;1.00;;;;;;5096712;27;20245;-59
2023/03/28 05:40:14;;;;;;;9.80;4.10;;;1.60;99.90;;;;;;5096314;28;20193;-59
2023/03/28 05:42:41;;;;;;;7.10;4.27;;;1.50;1.00;;;;;;5096423;28;20567;-60
2023/03/28 05:45:10;;;;;;;7.40;4.20;;;1.50;1.00;;;;;;5094528;28;20204;-59
2023/03/28 05:47:37;;;;;;;9.93;4.40;;;1.50;99.90;;;;;;5114063;27;20220;-61
2023/03/28 05:50:05;;;;;;;14.07;4.50;;;1.40;1.00;;;;;;5099301;28;20653;-59
2023/03/28 05:52:32;;;;;;;7.90;4.50;;;1.40;1.00;;;;;;5098282;28;20330;-60
2023/03/28 05:54:59;;;;;;;12.93;4.70;;;1.50;1.00;;;;;;5093124;28;20256;-60
2023/03/28 05:57:25;;;;;;;7.70;4.80;;;1.50;94.70;;;;;;5096355;28;20194;-65
2023/03/28 05:59:52;;;;;;;5.50;4.50;;;1.60;99.90;;;;;;5095354;28;20306;-63
2023/03/28 06:02:21;;;;;;;10.50;4.90;;;1.50;99.90;;;;;;5088577;28;20201;-60
2023/03/28 06:04:48;;;;;;;9.37;5.33;;;1.60;1.00;;;;;;5094246;28;20218;-59
2023/03/28 06:07:15;;;;;;;9.83;4.53;;;1.70;99.90;;;;;;5097968;28;20631;-59
2023/03/28 06:09:43;;;;;;;8.77;4.93;;;1.70;1.00;;;;;;5096586;28;20209;-59
2023/03/28 06:12:10;;;;;;;11.20;5.87;;;2.00;63.40;;;;;;5097059;28;20266;-60
2023/03/28 06:14:37;;;;;;;9.30;4.93;;;2.10;99.90;;;;;;5097777;28;20291;-60
2023/03/28 06:17:04;;;;;;;8.90;5.30;;;1.90;1.00;;;;;;5098766;28;20197;-61
2023/03/28 06:19:31;;;;;;;11.17;5.30;;;1.80;1.00;;;;;;5097617;28;20236;-60
2023/03/28 06:21:58;;;;;;;11.57;5.27;;;1.90;1.00;;;;;;5096959;28;20211;-60
2023/03/28 06:24:25;;;;;;;9.00;5.80;;;1.80;1.00;;;;;;5089216;28;20219;-60
2023/03/28 06:26:52;;;;;;;8.37;5.53;;;1.80;99.90;;;;;;5095961;28;20567;-60
2023/03/28 06:29:19;;;;;;;12.53;5.80;;;1.90;36.80;;;;;;4727131;28;9999943;-60
2023/03/28 06:31:45;;;;;;;11.10;6.03;;;2.00;15.50;;;;;;5091192;28;20650;-60
2023/03/28 06:34:12;;;;;;;8.63;5.20;;;2.30;1.00;;;;;;5095507;28;20198;-59
2023/03/28 06:36:39;;;;;;;9.70;5.00;;;2.50;1.00;;;;;;5090477;28;20713;-60
2023/03/28 06:39:07;;;;;;;11.07;6.17;;;2.30;1.00;;;;;;5096818;28;20235;-60
2023/03/28 06:41:34;;;;;;;10.67;5.77;;;2.50;1.00;;;;;;5095923;28;20630;-60
2023/03/28 06:44:01;;;;;;;8.43;5.70;;;2.50;1.00;;;;;;5094444;28;20306;-60
2023/03/28 06:46:28;;;;;;;10.73;6.07;;;2.40;1.00;;;;;;5092456;28;20253;-60
2023/03/28 06:48:55;;;;;;;9.30;5.73;;;2.40;1.00;;;;;;5097564;28;20199;-60
2023/03/28 06:51:22;;;;;;;12.57;6.43;;;2.30;1.00;;;;;;5097478;28;20189;-60
2023/03/28 06:53:49;;;;;;;9.83;5.77;;;2.40;1.00;;;;;;5098139;28;20339;-60
2023/03/28 06:56:16;;;;;;;9.83;5.83;;;2.40;1.00;;;;;;5094264;28;20662;-60
2023/03/28 06:58:43;;;;;;;11.10;6.03;;;2.40;1.00;;;;;;5095707;28;20633;-60
2023/03/28 07:01:10;;;;;;;17.33;6.47;;;2.50;1.00;;;;;;5095125;28;20573;-60
2023/03/28 07:03:37;;;;;;;9.57;6.13;;;2.40;99.90;;;;;;5092252;28;20203;-60
2023/03/28 07:06:06;;;;;;;11.67;6.53;;;2.60;1.00;;;;;;5092607;28;20237;-59
2023/03/28 07:08:33;;;;;;;10.43;5.73;;;2.80;95.00;;;;;;5090359;28;20917;-60
2023/03/28 07:11:00;;;;;;;9.87;6.20;;;2.90;99.90;;;;;;5090002;28;20736;-59
2023/03/28 07:13:27;;;;;;;10.57;6.23;;;2.80;1.00;;;;;;5093241;28;20223;-60
2023/03/28 07:16:03;;;;;;;11.97;6.37;;;2.90;1.00;;;;;;5089909;28;20195;-60
2023/03/28 07:18:30;;;;;;;10.57;5.97;;;3.10;1.00;;;;;;5093079;28;20234;-59
2023/03/28 07:20:57;;;;;;;13.73;6.57;;;3.20;1.00;;;;;;5092774;28;20666;-61
2023/03/28 07:23:30;;;;;;;10.87;6.33;;;3.40;99.90;;;;;;5093521;28;20195;-59
2023/03/28 07:25:56;;;;;;;7.77;5.90;;;3.40;99.90;;;;;;5084408;28;20229;-60
2023/03/28 07:28:23;;;;;;;11.50;6.17;;;3.70;99.90;;;;;;5085329;28;20260;-60
2023/03/28 07:30:53;;;;;;;8.00;5.87;;;3.60;99.90;;;;;;5087945;28;20199;-60
2023/03/28 07:33:20;;;;;;;11.20;6.53;;;3.90;1.00;;;;;;5085526;28;20236;-60
2023/03/28 07:36:13;;;;;;;11.07;6.20;;;3.90;1.00;;;;;;5084050;28;20209;-60
2023/03/28 07:38:40;;;;;;;12.13;5.60;;;4.30;1.00;;;;;;5081761;28;20269;-60
2023/03/28 07:41:08;;;;;;;11.67;6.03;;;4.60;99.90;;;;;;5089788;28;20538;-60
2023/03/28 07:43:37;;;;;;;12.67;5.60;;;4.40;99.90;;;;;;5085619;28;20204;-60
2023/03/28 07:46:10;;;;;;;8.57;5.67;;;4.70;1.00;;;;;;5093173;28;20225;-60
2023/03/28 07:48:39;;;;;;;9.53;5.00;;;4.60;91.10;;;;;;5099239;28;20230;-60
2023/03/28 07:51:08;;;;;;;7.63;6.03;;;4.70;1.00;;;;;;5094459;28;20514;-60
2023/03/28 07:53:36;;;;;;;11.47;5.83;;;4.70;48.20;;;;;;5093905;28;20714;-60
2023/03/28 07:56:04;;;;;;;13.10;5.80;;;5.00;99.90;;;;;;5096029;28;20571;-60
2023/03/28 07:58:31;;;;;;;9.10;5.33;;;5.60;8.10;;;;;;5095828;28;20291;-60
2023/03/28 08:01:05;;;;;;;8.03;5.33;;;5.60;1.00;;;;;;5098641;28;20311;-60
2023/03/28 08:03:31;;;;;;;9.87;4.97;;;5.80;1.00;;;;;;5101073;28;20335;-60
2023/03/28 08:06:07;;;;;;;8.03;4.13;;;6.00;1.00;;;;;;5086879;28;20210;-60
2023/03/28 08:08:50;;;;;;;5.83;4.40;;;5.90;1.00;;;;;;5092712;28;20297;-61
2023/03/28 08:11:17;;;;;;;7.73;4.70;;;5.90;1.00;;;;;;5091643;28;20203;-60
2023/03/28 08:13:44;;;;;;;8.30;4.50;;;5.60;1.00;;;;;;5098407;28;20225;-60
2023/03/28 08:16:11;;;;;;;8.23;4.37;;;5.70;99.90;;;;;;5090018;28;20234;-60
2023/03/28 08:18:38;;;;;;;8.30;4.60;;;5.60;1.00;;;;;;5093625;28;20225;-60
2023/03/28 08:21:05;;;;;;;11.70;4.50;;;5.70;1.00;;;;;;5089386;28;20199;-59
2023/03/28 08:23:32;;;;;;;8.83;3.80;;;6.10;1.00;;;;;;5094432;28;20307;-60
2023/03/28 08:26:04;;;;;;;11.13;4.20;;;6.10;99.90;;;;;;5086039;28;20225;-60
2023/03/28 08:28:36;;;;;;;8.80;4.63;;;5.80;99.90;;;;;;5095559;28;20250;-66
2023/03/28 08:31:15;;;;;;;8.90;4.27;;;5.90;99.90;;;;;;5093819;28;20201;-60
2023/03/28 08:33:47;;;;;;;7.17;3.30;;;6.10;99.90;;;;;;5099278;28;20309;-60
2023/03/28 08:36:14;;;;;;;5.83;3.00;;;5.90;99.90;;;;;;5089340;28;20192;-59
2023/03/28 08:38:42;;;;;;;7.93;3.50;;;6.20;99.90;;;;;;5097893;28;20197;-60
2023/03/28 08:41:45;;;;;;;8.63;2.53;;;6.50;56.60;;;;;;5094646;28;20216;-60
2023/03/28 08:44:39;;;;;;;7.10;2.73;;;6.20;1.00;;;;;;5091255;28;20734;-59
2023/03/28 08:47:15;;;;;;;7.77;2.60;;;6.20;41.10;;;;;;5090576;28;20611;-60
2023/03/28 08:50:00;;;;;;;5.03;3.00;;;6.40;99.90;;;;;;5088949;28;20716;-60
2023/03/28 08:52:27;;;;;;;4.20;2.63;;;6.60;11.70;;;;;;5093758;28;20244;-60
2023/03/28 08:55:05;;;;;;;6.73;2.07;;;6.50;1.00;;;;;;5088626;28;20942;-60
2023/03/28 08:57:34;;;;;;;5.53;2.20;;;6.90;1.00;;;;;;5094943;28;20230;-62
2023/03/28 09:00:21;;;;;;;5.67;2.07;;;6.40;1.00;;;;;;5093051;28;20214;-60
2023/03/28 09:02:48;;;;;;;6.03;2.17;;;6.40;1.00;;;;;;5089345;28;20207;-60
2023/03/28 09:05:36;;;;;;;7.93;2.07;;;6.60;1.00;;;;;;5100122;28;20216;-60
2023/03/28 09:08:32;;;;;;;9.50;1.90;;;6.40;1.00;;;;;;5094610;28;20206;-60
2023/03/28 09:11:24;;;;;;;3.73;2.00;;;6.20;1.00;;;;;;5093570;28;20198;-60
2023/03/28 09:14:08;;;;;;;5.13;2.17;;;6.40;1.00;;;;;;5096671;28;20210;-61
2023/03/28 09:16:49;;;;;;;2.87;1.33;;;6.70;1.00;;;;;;5096590;28;20208;-60
2023/03/28 09:19:29;;;;;;;5.93;1.83;;;6.60;1.00;;;;;;5096616;28;20224;-59
2023/03/28 09:22:35;;;;;;;8.57;2.03;;;6.50;1.00;;;;;;5095809;28;20197;-60
2023/03/28 09:25:06;;;;;;;5.63;2.00;;;6.60;1.00;;;;;;5095104;28;20194;-60
2023/03/28 09:27:37;;;;;;;9.07;3.20;;;6.70;1.00;;;;;;5095999;28;20204;-60
2023/03/28 09:30:17;;;;;;;8.57;2.27;;;6.70;1.00;;;;;;5099264;28;20206;-60
2023/03/28 09:32:44;;;;;;;6.07;2.43;;;6.70;1.00;;;;;;5095992;28;20568;-60
2023/03/28 09:35:23;;;;;;;5.43;2.53;;;6.50;1.00;;;;;;5094542;28;20198;-60
2023/03/28 09:37:59;;;;;;;6.10;2.40;;;6.40;1.00;;;;;;5091981;28;20224;-60
2023/03/28 09:40:29;;;;;;;5.90;2.23;;;6.80;1.00;;;;;;5095874;28;20210;-60
2023/03/28 09:43:11;;;;;;;4.37;2.00;;;7.10;1.00;;;;;;5095093;28;20291;-60
2023/03/28 09:45:42;;;;;;;8.23;1.80;;;7.00;1.00;;;;;;5091908;28;20206;-60
2023/03/28 09:48:21;;;;;;;3.07;1.33;;;6.90;1.00;;;;;;5094760;28;20203;-60
2023/03/28 09:50:49;;;;;;;5.37;2.00;;;6.70;1.00;;;;;;5095996;28;20213;-60
2023/03/28 09:53:27;;;;;;;5.63;2.37;;;6.90;1.00;;;;;;5093371;28;20299;-60
2023/03/28 09:56:04;;;;;;;4.60;2.17;;;6.80;1.00;;;;;;5096893;28;21006;-60
2023/03/28 09:58:56;;;;;;;6.30;2.03;;;6.80;1.00;;;;;;5097515;28;20302;-60
2023/03/28 10:01:38;;;;;;;9.33;3.63;;;6.90;1.00;;;;;;5096799;28;20746;-60
2023/03/28 10:04:15;;;;;;;6.97;2.20;;;7.00;1.00;;;;;;5097281;28;20292;-60
2023/03/28 10:06:44;;;;;;;3.90;2.03;;;7.10;1.00;;;;;;5095809;28;20600;-60
2023/03/28 10:09:18;;;;;;;3.00;1.70;;;7.00;1.00;;;;;;5093957;28;20285;-60
2023/03/28 10:11:47;;;;;;;3.73;1.47;;;6.70;1.00;;;;;;5090859;28;20306;-61
2023/03/28 10:14:31;;;;;;;3.93;1.50;;;6.90;1.00;;;;;;5102411;28;20236;-60
2023/03/28 10:17:17;;;;;;;5.60;1.53;;;7.10;1.00;;;;;;5092833;28;20236;-61
2023/03/28 10:19:46;;;;;;;2.27;1.10;;;7.20;1.00;;;;;;5094286;28;20278;-61
2023/03/28 10:22:34;;;;;;;1.57;1.30;;;6.90;1.00;;;;;;5094594;28;20195;-60
2023/03/28 10:25:06;;;;;;;4.27;1.27;;;7.00;1.00;;;;;;5088884;28;20217;-64
2023/03/28 10:27:38;;;;;;;3.03;1.40;;;6.80;1.00;;;;;;5091849;28;20303;-61
2023/03/28 10:30:25;;;;;;;4.13;1.40;;;6.70;1.00;;;;;;5091792;28;20216;-60
2023/03/28 10:33:16;;;;;;;3.27;1.20;;;6.80;1.00;;;;;;5098297;28;20225;-60
2023/03/28 10:35:46;;;;;;;5.67;1.20;;;6.70;1.00;;;;;;5098132;28;21042;-59
2023/03/28 10:38:17;;;;;;;3.67;1.40;;;6.90;1.00;;;;;;5097138;28;20202;-60
2023/03/28 10:40:58;;;;;;;4.77;1.40;;;6.90;1.00;;;;;;5093517;28;20209;-60
2023/03/28 10:43:34;;;;;;;3.70;1.33;;;7.10;1.00;;;;;;5088969;28;20216;-60
2023/03/28 10:46:10;;;;;;;6.87;1.40;;;7.10;99.90;;;;;;5096017;28;20289;-60
2023/03/28 10:48:39;;;;;;;2.57;1.30;;;7.20;99.90;;;;;;5094751;28;20203;-60
2023/03/28 10:51:14;;;;;;;4.70;1.57;;;7.50;99.90;;;;;;5095686;28;20812;-60
2023/03/28 10:53:49;;;;;;;3.33;1.13;;;7.50;99.90;;;;;;5097612;28;20291;-61
2023/03/28 10:56:27;;;;;;;4.90;1.30;;;7.40;99.90;;;;;;5095165;28;20273;-60
2023/03/28 10:59:22;;;;;;;4.67;1.50;;;7.60;99.90;;;;;;5083456;28;20202;-60
2023/03/28 11:02:43;;;;;;;2.83;1.57;;;7.70;99.90;;;;;;5087888;28;20281;-60
2023/03/28 11:05:31;;;;;;;5.53;1.40;;;7.70;99.90;;;;;;5069618;28;20206;-61
2023/03/28 11:08:18;;;;;;;4.83;1.10;;;7.90;99.90;;;;;;5094227;28;20250;-62
2023/03/28 11:11:14;;;;;;;5.77;1.43;;;8.20;99.90;;;;;;5098891;28;20227;-61
2023/03/28 11:14:23;;;;;;;5.90;1.30;;;8.20;99.90;;;;;;5095584;28;20210;-61
2023/03/28 11:17:16;;;;;;;4.93;1.63;;;8.50;99.90;;;;;;5092908;28;20204;-59
2023/03/28 11:19:59;;;;;;;4.03;1.20;;;8.20;99.90;;;;;;5071211;28;20211;-60
2023/03/28 11:23:03;;;;;;;4.97;1.60;;;8.50;99.90;;;;;;5086482;28;20312;-63
2023/03/28 11:25:44;;;;;;;3.53;1.17;;;8.70;99.90;;;;;;5091592;28;20240;-66
2023/03/28 11:28:26;;;;;;;5.40;1.80;;;8.90;99.90;;;;;;5093567;28;21166;-60
2023/03/28 11:30:56;;;;;;;3.40;1.20;;;8.70;99.90;;;;;;5092969;28;20852;-60
2023/03/28 11:34:10;;;;;;;4.53;1.40;;;8.50;99.90;;;;;;5094691;28;21015;-60
2023/03/28 11:36:45;;;;;;;2.60;1.43;;;8.30;99.90;;;;;;5051397;28;20746;-60
2023/03/28 11:39:48;;;;;;;3.57;1.30;;;8.40;99.90;;;;;;5094153;28;20201;-60
2023/03/28 11:42:38;;;;;;;4.53;1.77;;;8.40;99.90;;;;;;5093090;28;20213;-61
2023/03/28 11:45:11;;;;;;;2.20;1.77;;;8.60;99.90;;;;;;5088189;28;20238;-60
2023/03/28 11:47:48;;;;;;;3.57;1.53;;;8.70;99.90;;;;;;5092696;28;20949;-60
2023/03/28 11:50:44;;;;;;;8.07;1.70;;;9.10;99.90;;;;;;5104874;28;20199;-60
2023/03/28 11:53:20;;;;;;;4.10;1.50;;;9.70;99.90;;;;;;5077370;28;20272;-60
2023/03/28 11:55:52;;;;;;;3.03;1.80;;;9.70;99.90;;;;;;5088779;28;20712;-60
2023/03/28 11:58:30;;;;;;;5.47;1.57;;;9.60;99.90;;;;;;5091546;28;20198;-64
2023/03/28 12:01:02;;;;;;;3.60;1.57;;;9.50;99.90;;;;;;5089177;28;20223;-60
2023/03/28 12:03:59;;;;;;;2.63;1.50;;;9.40;99.90;;;;;;5091140;28;20625;-60
2023/03/28 12:06:52;;;;;;;4.07;1.90;;;9.10;99.90;;;;;;5088648;28;20214;-60
2023/03/28 12:09:56;;;;;;;5.17;1.67;;;9.20;99.90;;;;;;5089046;28;20197;-60
2023/03/28 12:12:32;;;;;;;4.87;2.30;;;9.10;99.90;;;;;;5077988;28;20209;-60
2023/03/28 12:15:05;;;;;;;6.23;2.27;;;9.40;99.90;;;;;;5082036;28;20224;-60
2023/03/28 12:17:45;;;;;;;5.50;1.77;;;9.10;99.90;;;;;;5085446;28;20716;-60
2023/03/28 12:20:26;;;;;;;4.93;1.97;;;9.20;99.90;;;;;;5077196;28;20202;-60
2023/03/28 12:23:02;;;;;;;2.50;1.27;;;9.20;99.90;;;;;;5083664;28;20266;-60
2023/03/28 12:25:38;;;;;;;3.73;1.70;;;9.10;99.90;;;;;;5084335;28;20643;-60
2023/03/28 12:28:14;;;;;;;3.10;1.73;;;9.10;99.90;;;;;;5090366;28;20277;-63
2023/03/28 12:31:04;;;;;;;6.23;1.83;;;9.10;99.90;;;;;;5088954;28;20606;-60
2023/03/28 12:33:50;;;;;;;6.13;2.30;;;8.90;99.90;;;;;;5089495;28;20224;-60
2023/03/28 12:36:32;;;;;;;5.07;1.90;;;9.00;99.90;;;;;;5086312;28;20209;-60
2023/03/28 12:39:24;;;;;;;2.10;1.57;;;9.30;99.90;;;;;;5085858;28;20251;-61
2023/03/28 12:41:52;;;;;;;2.83;1.83;;;9.20;99.90;;;;;;5092669;28;20282;-60
2023/03/28 12:44:24;;;;;;;3.80;1.73;;;9.50;99.90;;;;;;5093231;28;20262;-60
2023/03/28 12:47:02;;;;;;;4.23;1.97;;;9.60;99.90;;;;;;5091452;28;20300;-60
2023/03/28 12:49:36;;;;;;;3.60;1.80;;;9.60;99.90;;;;;;5091751;28;20232;-66
2023/03/28 12:52:06;;;;;;;2.83;1.70;;;9.60;99.90;;;;;;5092188;28;20333;-60
2023/03/28 12:54:51;;;;;;;4.47;1.90;;;9.30;99.90;;;;;;5081627;28;20369;-59
2023/03/28 12:57:39;;;;;;;6.00;2.77;;;9.30;99.90;;;;;;5093319;28;20618;-59
2023/03/28 13:00:16;;;;;;;3.90;1.77;;;9.20;99.90;;;;;;5096122;28;20294;-59
2023/03/28 13:02:45;;;;;;;5.90;1.70;;;9.30;99.90;;;;;;5093594;28;20245;-60
2023/03/28 13:05:45;;;;;;;2.53;1.70;;;8.90;99.90;;;;;;5089075;28;20212;-61
2023/03/28 13:08:23;;;;;;;3.63;1.60;;;9.00;99.90;;;;;;5092341;28;20258;-63
2023/03/28 13:11:15;;;;;;;5.10;1.53;;;9.00;99.90;;;;;;5094320;28;20443;-60
2023/03/28 13:14:01;;;;;;;3.70;1.50;;;9.10;99.90;;;;;;5093357;28;20218;-60
2023/03/28 13:16:51;;;;;;;2.80;1.47;;;9.10;99.90;;;;;;5081412;28;20204;-60
2023/03/28 13:19:20;;;;;;;2.87;1.60;;;8.90;99.90;;;;;;5090869;28;20245;-60
2023/03/28 13:21:50;;;;;;;4.60;1.70;;;9.00;99.90;;;;;;5096091;28;20203;-59
2023/03/28 13:24:32;;;;;;;1.77;1.57;;;9.00;99.90;;;;;;5083549;28;20297;-60
2023/03/28 13:27:05;;;;;;;4.03;1.40;;;8.90;99.90;;;;;;5093957;28;20207;-59
2023/03/28 13:29:44;;;;;;;3.47;1.83;;;9.30;99.90;;;;;;5089909;28;20306;-59
2023/03/28 13:32:17;;;;;;;3.10;1.50;;;9.60;99.90;;;;;;5093286;28;20210;-60
2023/03/28 13:34:51;;;;;;;4.07;1.43;;;10.20;99.90;;;;;;5094499;28;20298;-60
2023/03/28 13:37:21;;;;;;;1.93;1.40;;;11.00;99.90;;;;;;5091484;28;20219;-59